Time;durP1;ratioP1;P1;durP2;ratioP2;P2;SDS_P1;SDS_P2;PMS_P1;PMS_P2;Temp;Humidity;BMP_temperature;BMP_pressure;BME280_temperature;BME280_humidity;BME280_pressure;Samples;Min_cycle;Max_cycle;Signal;HPM_P1;HPM_P2
2022/04/11 08:33:08;;;;;;;10.18;5.88;;;;;;;;;;5143136;27;20111;-86
2022/04/11 08:35:34;;;;;;;12.15;6.30;;;;;;;;;;5107327;27;20043;-86
2022/04/11 08:38:01;;;;;;;8.65;5.72;;;;;;;;;;5104488;27;20043;-86
2022/04/11 08:40:27;;;;;;;10.00;5.55;;;;;;;;;;5114315;28;20401;-86
2022/04/11 08:42:53;;;;;;;10.05;5.38;;;;;;;;;;5075087;27;20040;-86
2022/04/11 08:45:20;;;;;;;8.27;4.90;;;;;;;;;;5097218;27;20550;-87
2022/04/11 08:47:50;;;;;;;8.77;5.00;;;;;;;;;;5115441;27;20041;-87
2022/04/11 08:50:17;;;;;;;9.20;6.05;;;;;;;;;;5092491;28;20035;-86
2022/04/11 08:52:43;;;;;;;11.45;5.95;;;;;;;;;;5090611;28;20043;-87
2022/04/11 08:55:11;;;;;;;9.73;5.03;;;;;;;;;;5090628;28;20545;-86
2022/04/11 08:57:37;;;;;;;8.10;4.03;;;;;;;;;;5113347;27;20536;-87
2022/04/11 09:00:06;;;;;;;8.52;5.32;;;;;;;;;;5115083;27;20070;-87
2022/04/11 09:02:35;;;;;;;12.25;6.00;;;;;;;;;;5092642;28;20077;-86
2022/04/11 09:05:01;;;;;;;7.05;4.20;;;;;;;;;;5124908;28;20039;-87
2022/04/11 09:07:28;;;;;;;9.05;5.10;;;;;;;;;;5113212;27;20030;-86
2022/04/11 09:09:58;;;;;;;7.50;4.30;;;;;;;;;;5096963;28;20035;-82
2022/04/11 09:12:24;;;;;;;8.77;5.78;;;;;;;;;;5091591;28;20046;-86
2022/04/11 09:14:56;;;;;;;8.02;4.72;;;;;;;;;;5127456;27;20062;-86
2022/04/11 09:17:23;;;;;;;10.25;4.60;;;;;;;;;;5093209;28;20035;-86
2022/04/11 09:20:05;;;;;;;8.43;5.03;;;;;;;;;;5105019;27;20063;-86
2022/04/11 09:22:31;;;;;;;8.02;4.43;;;;;;;;;;5106921;28;20414;-85
2022/04/11 09:25:07;;;;;;;8.57;4.70;;;;;;;;;;5072956;28;20055;-85
2022/04/11 09:27:34;;;;;;;8.52;4.50;;;;;;;;;;5087336;28;20040;-86
2022/04/11 09:30:00;;;;;;;8.55;4.13;;;;;;;;;;5092592;28;20132;-86
2022/04/11 09:32:27;;;;;;;6.88;3.67;;;;;;;;;;5097559;27;20079;-87
2022/04/11 09:35:03;;;;;;;7.80;4.07;;;;;;;;;;5099970;27;20043;-85
2022/04/11 09:37:29;;;;;;;7.88;3.20;;;;;;;;;;5105096;28;20422;-86
2022/04/11 09:39:59;;;;;;;5.95;2.22;;;;;;;;;;5109853;28;20096;-86
2022/04/11 09:42:32;;;;;;;4.65;2.25;;;;;;;;;;5084869;28;20036;-87
2022/04/11 09:44:59;;;;;;;7.00;3.35;;;;;;;;;;5090533;28;20456;-88
2022/04/11 09:47:25;;;;;;;8.02;3.40;;;;;;;;;;5096176;28;20073;-85
2022/04/11 09:49:51;;;;;;;8.20;3.92;;;;;;;;;;5079029;28;20131;-86
2022/04/11 09:52:17;;;;;;;6.82;3.85;;;;;;;;;;5095839;28;20143;-86
2022/04/11 09:54:49;;;;;;;8.27;3.45;;;;;;;;;;5079196;28;20085;-87
2022/04/11 09:57:18;;;;;;;7.07;3.50;;;;;;;;;;5079494;28;20481;-87
2022/04/11 09:59:45;;;;;;;7.45;3.10;;;;;;;;;;5079622;28;20046;-86
2022/04/11 10:02:17;;;;;;;8.25;4.07;;;;;;;;;;5095577;28;20122;-87
2022/04/11 10:04:46;;;;;;;7.95;2.90;;;;;;;;;;5091108;27;20035;-86
2022/04/11 10:07:12;;;;;;;8.38;2.97;;;;;;;;;;5086505;28;20048;-87
2022/04/11 10:09:42;;;;;;;8.50;3.47;;;;;;;;;;5097631;27;20515;-86
2022/04/11 10:12:09;;;;;;;7.43;3.15;;;;;;;;;;5093098;28;20313;-87
2022/04/11 10:14:35;;;;;;;5.30;2.72;;;;;;;;;;5102945;27;20122;-87
2022/04/11 10:17:02;;;;;;;6.68;3.25;;;;;;;;;;5082719;28;20053;-88
2022/04/11 10:19:33;;;;;;;7.85;3.30;;;;;;;;;;5086210;27;20035;-87
2022/04/11 10:22:03;;;;;;;7.53;3.70;;;;;;;;;;5075862;28;20043;-87
2022/04/11 10:24:36;;;;;;;6.32;3.10;;;;;;;;;;5097876;27;20046;-89
2022/04/11 10:27:28;;;;;;;6.00;2.90;;;;;;;;;;5077373;27;20042;-88
2022/04/11 10:29:54;;;;;;;5.65;2.78;;;;;;;;;;5097520;27;20039;-87
2022/04/11 10:32:21;;;;;;;6.03;2.50;;;;;;;;;;5077955;28;20055;-88
2022/04/11 10:35:04;;;;;;;6.53;2.67;;;;;;;;;;5076931;28;20039;-86
2022/04/11 10:37:40;;;;;;;5.88;3.00;;;;;;;;;;5107348;28;20039;-87
2022/04/11 10:40:21;;;;;;;7.55;3.00;;;;;;;;;;5079799;27;20039;-87
2022/04/11 10:43:12;;;;;;;7.93;2.97;;;;;;;;;;5077746;28;20040;-87
2022/04/11 10:45:42;;;;;;;5.38;2.45;;;;;;;;;;5092519;28;20035;-87
2022/04/11 10:48:10;;;;;;;6.82;2.85;;;;;;;;;;5074199;27;20485;-87
2022/04/11 10:50:36;;;;;;;6.13;3.17;;;;;;;;;;5086066;27;20489;-87
2022/04/11 10:53:27;;;;;;;7.35;2.83;;;;;;;;;;5080760;27;20031;-86
2022/04/11 10:55:56;;;;;;;5.32;2.97;;;;;;;;;;5100550;27;20054;-88
2022/04/11 10:58:24;;;;;;;6.10;3.28;;;;;;;;;;5101286;27;20027;-89
2022/04/11 11:00:51;;;;;;;7.53;3.10;;;;;;;;;;5115718;27;20056;-86
2022/04/11 11:03:18;;;;;;;9.20;3.72;;;;;;;;;;5086051;28;20070;-86
2022/04/11 11:05:45;;;;;;;7.55;3.50;;;;;;;;;;5082969;28;20032;-87
2022/04/11 11:08:12;;;;;;;6.22;3.22;;;;;;;;;;5085379;27;20027;-87
2022/04/11 11:10:39;;;;;;;7.15;3.10;;;;;;;;;;5074814;28;20347;-85
2022/04/11 11:13:27;;;;;;;6.38;3.20;;;;;;;;;;5101174;28;20581;-87
2022/04/11 11:16:01;;;;;;;7.45;3.40;;;;;;;;;;5067411;28;20043;-86
2022/04/11 11:18:27;;;;;;;7.85;3.97;;;;;;;;;;5083879;28;20042;-87
2022/04/11 11:20:55;;;;;;;6.53;3.40;;;;;;;;;;5074898;28;20398;-86
2022/04/11 11:23:25;;;;;;;7.10;3.53;;;;;;;;;;5074664;28;20520;-87
2022/04/11 11:25:52;;;;;;;8.75;3.97;;;;;;;;;;5100113;28;20518;-88
2022/04/11 11:28:18;;;;;;;5.70;3.58;;;;;;;;;;5065276;28;20035;-88
2022/04/11 11:30:45;;;;;;;6.38;3.90;;;;;;;;;;5074067;28;20071;-87
2022/04/11 11:33:18;;;;;;;5.80;3.03;;;;;;;;;;5108214;28;20290;-87
2022/04/11 11:35:46;;;;;;;6.50;3.35;;;;;;;;;;5071533;28;20067;-89
2022/04/11 11:38:13;;;;;;;6.32;3.38;;;;;;;;;;5074332;28;20059;-85
2022/04/11 11:40:43;;;;;;;7.72;3.70;;;;;;;;;;5077296;27;20036;-87
2022/04/11 11:43:16;;;;;;;8.80;4.13;;;;;;;;;;5100693;27;20198;-88
2022/04/11 11:45:42;;;;;;;7.00;3.80;;;;;;;;;;5091093;28;20054;-88
2022/04/11 11:48:20;;;;;;;10.25;4.13;;;;;;;;;;5107710;27;20490;-87
2022/04/11 11:50:47;;;;;;;7.45;4.43;;;;;;;;;;5073502;27;20036;-86
2022/04/11 11:53:13;;;;;;;7.25;4.22;;;;;;;;;;5086262;27;20553;-87
2022/04/11 11:55:56;;;;;;;10.23;3.70;;;;;;;;;;5087324;28;20035;-88
2022/04/11 11:58:33;;;;;;;8.70;4.35;;;;;;;;;;5069836;27;21118;-89
2022/04/11 12:01:08;;;;;;;8.63;4.10;;;;;;;;;;5085013;28;20118;-87
2022/04/11 12:06:23;;;;;;;9.95;4.40;;;;;;;;;;5099348;27;20405;-90
2022/04/11 12:08:57;;;;;;;7.88;4.10;;;;;;;;;;5078912;27;20042;-88
2022/04/11 12:11:24;;;;;;;7.22;3.47;;;;;;;;;;5094499;27;20027;-88
2022/04/11 12:13:58;;;;;;;6.55;3.92;;;;;;;;;;5076654;28;20085;-88
2022/04/11 12:16:24;;;;;;;7.30;3.80;;;;;;;;;;5084318;27;20130;-87
2022/04/11 12:18:54;;;;;;;8.38;4.30;;;;;;;;;;5088044;27;20066;-88
2022/04/11 12:21:34;;;;;;;7.68;4.13;;;;;;;;;;5084825;27;20038;-89
2022/04/11 12:24:01;;;;;;;9.25;4.22;;;;;;;;;;5111386;27;20092;-88
2022/04/11 12:26:32;;;;;;;7.38;4.00;;;;;;;;;;5077656;28;20240;-87
2022/04/11 12:28:58;;;;;;;7.15;3.92;;;;;;;;;;5083787;28;20397;-86
2022/04/11 12:31:25;;;;;;;7.18;3.95;;;;;;;;;;5085033;28;20069;-88
2022/04/11 12:33:52;;;;;;;8.02;4.32;;;;;;;;;;5083923;28;20032;-88
2022/04/11 12:36:30;;;;;;;8.40;4.10;;;;;;;;;;5072338;28;20506;-89
2022/04/11 12:39:17;;;;;;;8.80;4.30;;;;;;;;;;5079542;28;20047;-88
2022/04/11 12:41:44;;;;;;;6.75;4.45;;;;;;;;;;5074945;28;20047;-88
2022/04/11 12:44:11;;;;;;;7.47;3.90;;;;;;;;;;5075448;28;20036;-89
2022/04/11 12:46:38;;;;;;;7.60;3.92;;;;;;;;;;5079094;28;20552;-87
2022/04/11 12:49:05;;;;;;;7.82;4.40;;;;;;;;;;5076536;28;20042;-86
2022/04/11 12:51:32;;;;;;;7.80;4.40;;;;;;;;;;5092421;28;20110;-87
2022/04/11 12:54:11;;;;;;;8.45;4.07;;;;;;;;;;5076037;28;20035;-87
2022/04/11 12:56:49;;;;;;;7.45;4.30;;;;;;;;;;5073768;28;20397;-87
2022/04/11 12:59:28;;;;;;;8.43;4.22;;;;;;;;;;5093509;28;20081;-89
2022/04/11 13:02:14;;;;;;;7.60;4.45;;;;;;;;;;5076154;28;20035;-87
2022/04/11 13:04:41;;;;;;;8.52;4.72;;;;;;;;;;5116390;28;20100;-88
2022/04/11 13:07:09;;;;;;;7.10;4.07;;;;;;;;;;5073920;28;20071;-87
2022/04/11 13:09:38;;;;;;;7.57;4.13;;;;;;;;;;5061516;28;20173;-86
2022/04/11 13:12:08;;;;;;;7.00;3.67;;;;;;;;;;5073439;28;20050;-87
2022/04/11 13:14:35;;;;;;;7.85;4.22;;;;;;;;;;5090024;28;20032;-88
2022/04/11 13:19:47;;;;;;;6.32;4.38;;;;;;;;;;5093728;28;20085;-87
2022/04/11 13:22:13;;;;;;;6.43;4.00;;;;;;;;;;5111123;27;20375;-88
2022/04/11 13:24:39;;;;;;;7.90;4.82;;;;;;;;;;5083647;28;20027;-88
2022/04/11 13:27:05;;;;;;;7.60;4.07;;;;;;;;;;5096878;28;20047;-89
2022/04/11 13:29:32;;;;;;;6.38;4.47;;;;;;;;;;5079256;28;20150;-89
2022/04/11 13:31:59;;;;;;;7.25;4.30;;;;;;;;;;5076779;28;20048;-88
2022/04/11 13:34:26;;;;;;;7.55;3.67;;;;;;;;;;5074713;28;20279;-86
2022/04/11 13:36:52;;;;;;;8.18;4.30;;;;;;;;;;5091601;28;20069;-87
2022/04/11 13:39:18;;;;;;;6.40;4.30;;;;;;;;;;5091696;28;20040;-87
2022/04/11 13:41:47;;;;;;;6.28;4.13;;;;;;;;;;5090256;28;20062;-86
2022/04/11 13:44:18;;;;;;;7.25;4.25;;;;;;;;;;5075978;28;20036;-87
2022/04/11 13:46:45;;;;;;;8.75;4.88;;;;;;;;;;5092037;28;20039;-86
2022/04/11 13:49:12;;;;;;;7.18;4.85;;;;;;;;;;5088349;28;20038;-86
2022/04/11 13:51:38;;;;;;;7.50;4.38;;;;;;;;;;5093744;28;20297;-87
2022/04/11 13:54:05;;;;;;;7.43;4.47;;;;;;;;;;5067938;28;20033;-86
2022/04/11 13:56:31;;;;;;;7.35;4.78;;;;;;;;;;5061428;28;20039;-87
2022/04/11 13:58:57;;;;;;;7.93;4.90;;;;;;;;;;5082452;28;20439;-87
2022/04/11 14:01:24;;;;;;;6.53;4.32;;;;;;;;;;5086031;28;20593;-86
2022/04/11 14:03:51;;;;;;;7.53;4.07;;;;;;;;;;5089160;28;20077;-86
2022/04/11 14:06:18;;;;;;;7.75;4.65;;;;;;;;;;5080075;28;20422;-87
2022/04/11 14:08:44;;;;;;;8.82;4.70;;;;;;;;;;5076952;28;20048;-87
2022/04/11 14:11:10;;;;;;;11.10;5.32;;;;;;;;;;5073026;28;20028;-87
2022/04/11 14:13:37;;;;;;;7.57;4.30;;;;;;;;;;5074144;28;20380;-85
2022/04/11 14:16:04;;;;;;;6.45;4.03;;;;;;;;;;5072804;28;20047;-86
2022/04/11 14:18:30;;;;;;;7.78;4.40;;;;;;;;;;5085096;28;20040;-87
2022/04/11 14:20:57;;;;;;;8.07;4.38;;;;;;;;;;5074555;28;20043;-87
2022/04/11 14:23:27;;;;;;;7.95;4.47;;;;;;;;;;5090423;28;20035;-87
2022/04/11 14:25:53;;;;;;;7.07;4.15;;;;;;;;;;5095706;28;20035;-85
2022/04/11 14:28:19;;;;;;;7.28;4.05;;;;;;;;;;5095779;28;20031;-87
2022/04/11 14:30:45;;;;;;;7.00;4.18;;;;;;;;;;5095691;27;20036;-85
2022/04/11 14:33:12;;;;;;;7.45;4.60;;;;;;;;;;5111327;28;20054;-88
2022/04/11 14:35:39;;;;;;;7.18;3.97;;;;;;;;;;5078936;28;20139;-87
2022/04/11 14:38:06;;;;;;;7.88;4.40;;;;;;;;;;5094804;28;20126;-87
2022/04/11 14:40:32;;;;;;;7.32;4.20;;;;;;;;;;5078347;28;20043;-88
2022/04/11 14:42:59;;;;;;;6.57;4.00;;;;;;;;;;5097430;27;20074;-87
2022/04/11 14:45:25;;;;;;;6.32;3.72;;;;;;;;;;5098706;27;20666;-85
2022/04/11 14:47:52;;;;;;;9.15;4.32;;;;;;;;;;5098339;27;20043;-87
2022/04/11 14:50:18;;;;;;;7.13;3.78;;;;;;;;;;5115285;27;20078;-87
2022/04/11 14:52:44;;;;;;;6.20;3.92;;;;;;;;;;5115035;27;20129;-87
2022/04/11 14:55:11;;;;;;;8.20;4.30;;;;;;;;;;5098734;27;20043;-88
2022/04/11 14:57:37;;;;;;;6.72;4.00;;;;;;;;;;5094958;27;20482;-86
2022/04/11 15:00:04;;;;;;;7.97;4.47;;;;;;;;;;5082959;28;20039;-87
2022/04/11 15:02:30;;;;;;;6.50;3.97;;;;;;;;;;5089955;27;20130;-85
2022/04/11 15:04:56;;;;;;;6.38;4.00;;;;;;;;;;5114691;27;20530;-87
2022/04/11 15:07:22;;;;;;;7.60;4.35;;;;;;;;;;5084780;28;20032;-87
2022/04/11 15:09:48;;;;;;;8.00;3.92;;;;;;;;;;5091963;28;20050;-86
2022/04/11 15:12:14;;;;;;;6.82;4.38;;;;;;;;;;5110845;27;20039;-86
2022/04/11 15:14:42;;;;;;;9.70;4.03;;;;;;;;;;5090402;28;20040;-89
2022/04/11 15:17:14;;;;;;;7.05;4.18;;;;;;;;;;5075155;28;20039;-88
2022/04/11 15:19:40;;;;;;;6.75;4.45;;;;;;;;;;5092026;28;20045;-87
2022/04/11 15:22:07;;;;;;;7.45;4.43;;;;;;;;;;5089813;27;20550;-87
2022/04/11 15:24:33;;;;;;;6.40;4.30;;;;;;;;;;5069137;28;20044;-88
2022/04/11 15:27:02;;;;;;;7.95;4.90;;;;;;;;;;5077600;28;20573;-86
2022/04/11 15:29:28;;;;;;;6.50;4.18;;;;;;;;;;5086707;28;20118;-87
2022/04/11 15:31:55;;;;;;;8.75;4.57;;;;;;;;;;5082843;28;20449;-85
2022/04/11 15:34:21;;;;;;;7.60;4.80;;;;;;;;;;5098036;28;20490;-87
2022/04/11 15:36:51;;;;;;;7.28;4.70;;;;;;;;;;5105505;28;20036;-87
2022/04/11 15:39:18;;;;;;;7.50;4.78;;;;;;;;;;5081364;28;20119;-87
2022/04/11 15:41:45;;;;;;;8.05;4.30;;;;;;;;;;5091687;28;20046;-86
2022/04/11 15:44:11;;;;;;;9.20;5.45;;;;;;;;;;5090626;28;20119;-85
2022/04/11 15:46:37;;;;;;;7.80;4.90;;;;;;;;;;5073641;28;20036;-86
2022/04/11 15:49:03;;;;;;;11.07;4.90;;;;;;;;;;5074163;28;20505;-86
2022/04/11 15:51:31;;;;;;;9.93;4.45;;;;;;;;;;5081319;28;20192;-87
2022/04/11 15:53:58;;;;;;;9.05;4.32;;;;;;;;;;5111273;28;20139;-88
2022/04/11 15:56:25;;;;;;;9.23;5.05;;;;;;;;;;5080671;28;20823;-87
2022/04/11 15:58:52;;;;;;;8.93;5.20;;;;;;;;;;5078230;28;20097;-88
2022/04/11 16:01:18;;;;;;;6.95;4.60;;;;;;;;;;5096585;28;20047;-88
2022/04/11 16:03:44;;;;;;;8.15;4.75;;;;;;;;;;5084478;28;20063;-88
2022/04/11 16:06:11;;;;;;;7.38;5.07;;;;;;;;;;5080706;28;20035;-85
2022/04/11 16:08:37;;;;;;;8.13;4.38;;;;;;;;;;5088306;28;20044;-85
2022/04/11 16:11:03;;;;;;;7.55;4.85;;;;;;;;;;5071412;28;20093;-85
2022/04/11 16:13:29;;;;;;;7.78;4.93;;;;;;;;;;5076442;28;20028;-86
2022/04/11 16:15:59;;;;;;;8.73;5.38;;;;;;;;;;5068338;28;20035;-85
2022/04/11 16:18:25;;;;;;;8.30;5.22;;;;;;;;;;5056814;28;20039;-88
2022/04/11 16:20:52;;;;;;;7.25;4.82;;;;;;;;;;5070517;28;20039;-86
2022/04/11 16:23:18;;;;;;;7.68;4.63;;;;;;;;;;5072030;28;20087;-85
2022/04/11 16:25:45;;;;;;;6.97;4.45;;;;;;;;;;5085047;28;20040;-86
2022/04/11 16:28:11;;;;;;;8.55;4.80;;;;;;;;;;5083603;28;20465;-85
2022/04/11 16:30:38;;;;;;;7.75;5.15;;;;;;;;;;5071936;28;20127;-85
2022/04/11 16:33:04;;;;;;;9.00;5.30;;;;;;;;;;5067739;28;20060;-86
2022/04/11 16:35:31;;;;;;;8.00;5.28;;;;;;;;;;5069128;28;20418;-86
2022/04/11 16:37:57;;;;;;;8.75;5.03;;;;;;;;;;5057810;28;20127;-86
2022/04/11 16:40:24;;;;;;;9.35;5.22;;;;;;;;;;5068832;28;20494;-85
2022/04/11 16:42:50;;;;;;;9.70;5.57;;;;;;;;;;5069853;28;20476;-85
2022/04/11 16:45:17;;;;;;;9.38;4.88;;;;;;;;;;5068748;28;20044;-84
2022/04/11 16:47:43;;;;;;;10.80;5.68;;;;;;;;;;5068639;28;20115;-85
2022/04/11 16:50:10;;;;;;;8.57;5.20;;;;;;;;;;5071262;28;20048;-87
2022/04/11 16:52:36;;;;;;;8.98;4.75;;;;;;;;;;5087721;28;20104;-87
2022/04/11 16:55:05;;;;;;;7.53;4.78;;;;;;;;;;5087369;28;20098;-88
2022/04/11 16:57:31;;;;;;;9.13;5.63;;;;;;;;;;5076621;28;20052;-87
2022/04/11 16:59:57;;;;;;;9.15;5.28;;;;;;;;;;5095349;28;20036;-87
2022/04/11 17:02:23;;;;;;;8.90;5.10;;;;;;;;;;5089472;28;20043;-86
2022/04/11 17:04:50;;;;;;;8.70;4.85;;;;;;;;;;5066900;28;20048;-87
2022/04/11 17:07:16;;;;;;;8.65;4.80;;;;;;;;;;5061973;28;20123;-87
2022/04/11 17:09:42;;;;;;;8.38;5.03;;;;;;;;;;5072201;28;20032;-88
2022/04/11 17:12:09;;;;;;;8.77;5.35;;;;;;;;;;5086861;28;20062;-86
2022/04/11 17:14:35;;;;;;;9.52;4.80;;;;;;;;;;5071942;28;20036;-86
2022/04/11 17:19:47;;;;;;;10.98;5.43;;;;;;;;;;5120336;27;20044;-86
2022/04/11 17:22:13;;;;;;;7.97;4.82;;;;;;;;;;5070536;28;20047;-85
2022/04/11 17:24:39;;;;;;;8.98;5.20;;;;;;;;;;5071146;28;20039;-86
2022/04/11 17:27:06;;;;;;;9.52;5.18;;;;;;;;;;5071987;28;20500;-87
2022/04/11 17:29:32;;;;;;;8.82;4.80;;;;;;;;;;5071380;28;20085;-86
2022/04/11 17:31:58;;;;;;;8.55;5.00;;;;;;;;;;5071679;28;20059;-86
2022/04/11 17:34:31;;;;;;;10.25;5.10;;;;;;;;;;5089139;28;20040;-86
2022/04/11 17:36:58;;;;;;;9.95;5.30;;;;;;;;;;5071935;28;20035;-86
2022/04/11 17:39:24;;;;;;;7.90;4.57;;;;;;;;;;5056293;28;20086;-86
2022/04/11 17:41:50;;;;;;;9.98;5.63;;;;;;;;;;5076940;28;20089;-87
2022/04/11 17:44:16;;;;;;;7.72;4.60;;;;;;;;;;5075938;28;20054;-87
2022/04/11 17:46:42;;;;;;;11.15;4.82;;;;;;;;;;5071866;28;20035;-85
2022/04/11 17:49:09;;;;;;;6.93;4.30;;;;;;;;;;5073707;28;20075;-85
2022/04/11 17:51:35;;;;;;;9.02;5.05;;;;;;;;;;5070840;28;20040;-86
2022/04/11 17:54:02;;;;;;;10.18;5.35;;;;;;;;;;5071085;28;20131;-84
2022/04/11 17:56:29;;;;;;;7.93;4.55;;;;;;;;;;5071511;28;20464;-87
2022/04/11 17:58:56;;;;;;;7.00;4.28;;;;;;;;;;5088732;28;20040;-84
2022/04/11 18:01:22;;;;;;;10.35;4.28;;;;;;;;;;5087968;28;20048;-85
2022/04/11 18:03:49;;;;;;;10.68;4.43;;;;;;;;;;5071538;28;20036;-83
2022/04/11 18:06:15;;;;;;;7.68;3.90;;;;;;;;;;5071473;28;20056;-84
2022/04/11 18:08:43;;;;;;;8.02;3.78;;;;;;;;;;5071217;28;20036;-85
2022/04/11 18:11:10;;;;;;;6.88;3.53;;;;;;;;;;5058304;28;20235;-85
2022/04/11 18:13:36;;;;;;;9.20;3.83;;;;;;;;;;5064647;28;20449;-85
2022/04/11 18:16:04;;;;;;;8.05;3.60;;;;;;;;;;5059711;28;20039;-84
2022/04/11 18:18:30;;;;;;;6.65;3.40;;;;;;;;;;5062305;28;20537;-84
2022/04/11 18:20:56;;;;;;;7.97;3.55;;;;;;;;;;5059548;28;20272;-84
2022/04/11 18:23:22;;;;;;;7.65;3.60;;;;;;;;;;5083073;28;20422;-84
2022/04/11 18:25:49;;;;;;;7.38;3.70;;;;;;;;;;5076518;28;20036;-84
2022/04/11 18:33:44;;;;;;;8.55;3.78;;;;;;;;;;5095674;28;20047;-85
2022/04/11 18:36:10;;;;;;;8.55;3.95;;;;;;;;;;5092059;28;20040;-85
2022/04/11 18:38:37;;;;;;;9.23;3.88;;;;;;;;;;5074257;28;20122;-84
2022/04/11 18:41:03;;;;;;;7.65;3.67;;;;;;;;;;5082151;27;20494;-85
2022/04/11 18:43:29;;;;;;;8.07;4.07;;;;;;;;;;5081508;28;20042;-85
2022/04/11 18:45:55;;;;;;;8.10;4.43;;;;;;;;;;5111315;27;20032;-84
2022/04/11 18:48:21;;;;;;;10.05;4.65;;;;;;;;;;5092212;27;20038;-84
2022/04/11 18:50:47;;;;;;;8.80;4.82;;;;;;;;;;5108437;28;20069;-84
2022/04/11 18:53:13;;;;;;;16.25;11.05;;;;;;;;;;5121978;27;20402;-85
2022/04/11 18:55:40;;;;;;;8.20;4.60;;;;;;;;;;5086101;28;20130;-84
2022/04/11 18:58:07;;;;;;;8.27;4.55;;;;;;;;;;5075925;28;20089;-84
2022/04/11 19:00:34;;;;;;;9.82;4.47;;;;;;;;;;5084812;28;20039;-84
2022/04/11 19:03:01;;;;;;;12.75;8.10;;;;;;;;;;5102657;27;20085;-84
2022/04/11 19:05:27;;;;;;;9.45;4.72;;;;;;;;;;5080811;27;20505;-84
2022/04/11 19:07:53;;;;;;;10.05;5.00;;;;;;;;;;5084787;27;20039;-85
2022/04/11 19:10:19;;;;;;;11.02;5.65;;;;;;;;;;5103987;27;20031;-85
2022/04/11 19:12:45;;;;;;;12.15;8.38;;;;;;;;;;5080808;27;20053;-84
2022/04/11 19:15:12;;;;;;;8.52;6.00;;;;;;;;;;5084291;27;20039;-84
2022/04/11 19:17:39;;;;;;;11.85;6.95;;;;;;;;;;5079444;27;20383;-85
2022/04/11 19:20:05;;;;;;;9.93;5.63;;;;;;;;;;5097138;27;20483;-84
2022/04/11 19:22:32;;;;;;;7.00;3.70;;;;;;;;;;5085219;27;20524;-84
2022/04/11 19:24:58;;;;;;;9.45;4.85;;;;;;;;;;5081191;27;20122;-84
2022/04/11 19:27:24;;;;;;;9.40;4.15;;;;;;;;;;5082538;27;20031;-84
2022/04/11 19:29:50;;;;;;;8.10;4.60;;;;;;;;;;5057895;28;20035;-84
2022/04/11 19:32:17;;;;;;;9.40;5.47;;;;;;;;;;5086874;27;20074;-84
2022/04/11 19:34:44;;;;;;;8.55;4.95;;;;;;;;;;5078828;27;20046;-84
2022/04/11 19:37:11;;;;;;;10.35;6.40;;;;;;;;;;5101268;27;20402;-84
2022/04/11 19:39:37;;;;;;;9.48;5.57;;;;;;;;;;5100302;27;20600;-84
2022/04/11 19:42:05;;;;;;;9.48;5.63;;;;;;;;;;5098023;27;20031;-83
2022/04/11 19:44:31;;;;;;;47.28;42.38;;;;;;;;;;5083920;27;20031;-84
2022/04/11 19:46:57;;;;;;;27.75;20.63;;;;;;;;;;5096123;28;20027;-84
2022/04/11 19:52:08;;;;;;;32.70;23.02;;;;;;;;;;5131420;27;20035;-83
2022/04/11 19:54:34;;;;;;;152.23;85.45;;;;;;;;;;5098859;28;20047;-84
2022/04/11 19:57:01;;;;;;;42.55;32.60;;;;;;;;;;5070989;27;20493;-83
2022/04/11 19:59:27;;;;;;;35.95;26.60;;;;;;;;;;5088276;27;20059;-84
2022/04/11 20:01:54;;;;;;;30.98;25.92;;;;;;;;;;5083727;27;20121;-84
2022/04/11 20:04:20;;;;;;;30.20;27.23;;;;;;;;;;5075115;28;20418;-84
2022/04/11 20:06:47;;;;;;;21.10;16.45;;;;;;;;;;5090794;28;20076;-84
2022/04/11 20:09:13;;;;;;;14.82;12.35;;;;;;;;;;5118881;27;20072;-83
2022/04/11 20:11:39;;;;;;;20.50;16.60;;;;;;;;;;5090552;28;20039;-84
2022/04/11 20:14:05;;;;;;;16.45;13.95;;;;;;;;;;5108118;28;20486;-84
2022/04/11 20:16:32;;;;;;;15.20;12.02;;;;;;;;;;5060509;28;20123;-84
2022/04/11 20:18:58;;;;;;;12.90;11.45;;;;;;;;;;5073410;28;20036;-85
2022/04/11 20:21:24;;;;;;;10.18;5.15;;;;;;;;;;5073921;28;20681;-84
2022/04/11 20:23:53;;;;;;;12.40;10.77;;;;;;;;;;5090673;28;20427;-84
2022/04/11 20:26:19;;;;;;;8.25;4.50;;;;;;;;;;5107625;28;20036;-84
2022/04/11 20:28:48;;;;;;;9.18;5.75;;;;;;;;;;5057634;28;20036;-84
2022/04/11 20:31:15;;;;;;;8.38;5.72;;;;;;;;;;5068799;28;20139;-84
2022/04/11 20:33:41;;;;;;;9.80;5.25;;;;;;;;;;5079222;28;20123;-83
2022/04/11 20:36:09;;;;;;;14.07;10.95;;;;;;;;;;5060765;28;20532;-83
2022/04/11 20:38:36;;;;;;;9.80;5.55;;;;;;;;;;5073775;28;20081;-84
2022/04/11 20:41:02;;;;;;;11.77;9.73;;;;;;;;;;5090401;28;20035;-84
2022/04/11 20:43:29;;;;;;;14.23;12.82;;;;;;;;;;5073900;28;20077;-84
2022/04/11 20:45:55;;;;;;;10.10;7.07;;;;;;;;;;5060832;28;20036;-84
2022/04/11 20:48:22;;;;;;;13.23;10.18;;;;;;;;;;5073957;28;20521;-83
2022/04/11 20:50:48;;;;;;;12.25;8.85;;;;;;;;;;5090315;28;20032;-83
2022/04/11 20:53:14;;;;;;;9.93;5.78;;;;;;;;;;5065441;28;20036;-83
2022/04/11 20:55:41;;;;;;;28.27;23.33;;;;;;;;;;5073360;28;20073;-83
2022/04/11 20:58:11;;;;;;;22.42;19.08;;;;;;;;;;5090376;28;20039;-83
2022/04/11 21:00:38;;;;;;;23.00;19.27;;;;;;;;;;5091262;28;20039;-84
2022/04/11 21:03:05;;;;;;;13.60;10.00;;;;;;;;;;5065789;28;20055;-83
2022/04/11 21:05:32;;;;;;;13.50;10.40;;;;;;;;;;5082114;28;20032;-84
2022/04/11 21:07:58;;;;;;;10.98;7.57;;;;;;;;;;5057398;28;20044;-83
2022/04/11 21:10:25;;;;;;;18.58;15.82;;;;;;;;;;5069951;28;20066;-84
2022/04/11 21:12:53;;;;;;;11.77;6.65;;;;;;;;;;5073653;28;20378;-84
2022/04/11 21:15:19;;;;;;;27.83;20.00;;;;;;;;;;5061818;28;20036;-84
2022/04/11 21:17:45;;;;;;;8.48;5.30;;;;;;;;;;5073348;28;20035;-83
2022/04/11 21:20:11;;;;;;;8.32;4.45;;;;;;;;;;5090036;28;20126;-83
2022/04/11 21:22:38;;;;;;;8.52;4.53;;;;;;;;;;5066158;28;20038;-83
2022/04/11 21:25:05;;;;;;;9.27;4.20;;;;;;;;;;5078742;28;20032;-84
2022/04/11 21:27:31;;;;;;;7.53;4.13;;;;;;;;;;5058012;28;20043;-84
2022/04/11 21:29:57;;;;;;;10.23;4.25;;;;;;;;;;5072118;28;20436;-84
2022/04/11 21:32:23;;;;;;;7.25;4.03;;;;;;;;;;5089957;28;20083;-84
2022/04/11 21:34:53;;;;;;;9.50;4.63;;;;;;;;;;5062846;28;20079;-83
2022/04/11 21:37:19;;;;;;;7.13;4.43;;;;;;;;;;5073302;28;20123;-83
2022/04/11 21:39:45;;;;;;;8.93;5.07;;;;;;;;;;5092507;28;20092;-83
2022/04/11 21:42:11;;;;;;;11.43;5.15;;;;;;;;;;5093806;28;20474;-84
2022/04/11 21:44:38;;;;;;;9.88;4.93;;;;;;;;;;5066778;28;20036;-83
2022/04/11 21:47:04;;;;;;;9.38;4.95;;;;;;;;;;5076584;28;20442;-84
2022/04/11 21:49:31;;;;;;;11.52;5.25;;;;;;;;;;5060565;28;20040;-83
2022/04/11 21:52:05;;;;;;;9.25;5.68;;;;;;;;;;5071349;28;20490;-83
2022/04/11 21:54:32;;;;;;;9.63;4.85;;;;;;;;;;5077176;28;20537;-83
2022/04/11 21:56:58;;;;;;;9.77;5.25;;;;;;;;;;5079616;28;20444;-83
2022/04/11 21:59:25;;;;;;;9.77;5.95;;;;;;;;;;5079440;28;20505;-83
2022/04/11 22:01:52;;;;;;;11.20;6.40;;;;;;;;;;5078708;28;20039;-84
2022/04/11 22:04:18;;;;;;;10.93;6.20;;;;;;;;;;5079060;28;20394;-83
2022/04/11 22:06:45;;;;;;;9.65;5.88;;;;;;;;;;5064879;28;20032;-83
2022/04/11 22:09:11;;;;;;;10.32;5.40;;;;;;;;;;5077122;28;20062;-84
2022/04/11 22:11:39;;;;;;;9.20;5.65;;;;;;;;;;5079039;28;20509;-83
2022/04/11 22:14:05;;;;;;;10.07;5.97;;;;;;;;;;5078545;28;20039;-83
2022/04/11 22:16:32;;;;;;;9.75;6.30;;;;;;;;;;5079006;28;20053;-83
2022/04/11 22:18:58;;;;;;;9.65;5.82;;;;;;;;;;5078719;28;20379;-83
2022/04/11 22:21:24;;;;;;;10.70;7.15;;;;;;;;;;5095115;28;20032;-83
2022/04/11 22:23:50;;;;;;;9.52;6.50;;;;;;;;;;5069735;28;20074;-83
2022/04/11 22:26:16;;;;;;;10.80;6.95;;;;;;;;;;5075272;28;20039;-82
2022/04/11 22:28:43;;;;;;;9.30;6.25;;;;;;;;;;5075149;28;20081;-82
2022/04/11 22:31:10;;;;;;;11.68;6.97;;;;;;;;;;5078448;28;20452;-82
2022/04/11 22:33:37;;;;;;;12.02;7.07;;;;;;;;;;5078530;28;20043;-82
2022/04/11 22:36:04;;;;;;;9.70;6.53;;;;;;;;;;5078318;28;20058;-82
2022/04/11 22:38:30;;;;;;;11.02;6.85;;;;;;;;;;5095104;28;20043;-83
2022/04/11 22:40:56;;;;;;;11.45;6.88;;;;;;;;;;5078251;28;20085;-83
2022/04/11 22:43:22;;;;;;;12.60;6.57;;;;;;;;;;5078066;28;20139;-82
2022/04/11 22:45:48;;;;;;;11.98;7.22;;;;;;;;;;5066022;28;20127;-83
2022/04/11 22:48:15;;;;;;;10.98;7.32;;;;;;;;;;5078144;28;20031;-83
2022/04/11 22:50:41;;;;;;;10.73;6.75;;;;;;;;;;5094981;28;20682;-83
2022/04/11 22:53:07;;;;;;;10.48;7.28;;;;;;;;;;5070883;28;20044;-83
2022/04/11 22:55:34;;;;;;;16.02;7.85;;;;;;;;;;5078277;28;20703;-83
2022/04/11 22:58:00;;;;;;;12.20;7.10;;;;;;;;;;5077955;28;20465;-82
2022/04/11 23:00:27;;;;;;;11.85;7.50;;;;;;;;;;5077865;28;20039;-83
2022/04/11 23:02:53;;;;;;;12.55;7.10;;;;;;;;;;5094355;28;20105;-83
2022/04/11 23:05:19;;;;;;;11.82;8.10;;;;;;;;;;5077988;28;20441;-82
2022/04/11 23:07:45;;;;;;;11.80;7.35;;;;;;;;;;5063110;28;20044;-83
2022/04/11 23:10:12;;;;;;;13.38;7.75;;;;;;;;;;5074248;28;20058;-83
2022/04/11 23:12:53;;;;;;;13.15;7.88;;;;;;;;;;5074262;28;20076;-82
2022/04/11 23:15:28;;;;;;;13.55;7.72;;;;;;;;;;5072746;28;20044;-83
2022/04/11 23:17:54;;;;;;;11.68;7.50;;;;;;;;;;5074352;28;20051;-83
2022/04/11 23:20:20;;;;;;;11.57;7.75;;;;;;;;;;5074022;28;20036;-82
2022/04/11 23:22:47;;;;;;;12.93;7.30;;;;;;;;;;5073888;28;20537;-83
2022/04/11 23:25:18;;;;;;;12.38;7.20;;;;;;;;;;5079533;28;20035;-83
2022/04/11 23:27:44;;;;;;;12.00;7.20;;;;;;;;;;5077365;28;20071;-83
2022/04/11 23:30:30;;;;;;;12.05;8.10;;;;;;;;;;5094017;28;20040;-83